sensor_id;sensor_type;location;lat;lon;timestamp;P1;durP1;ratioP1;P2;durP2;ratioP2
14933;SDS011;7560;51.364;12.384;2023-05-07T00:00:46;11.07;;;7.63;;
14933;SDS011;7560;51.364;12.384;2023-05-07T00:05:48;13.05;;;8.52;;
14933;SDS011;7560;51.364;12.384;2023-05-07T00:10:56;10.77;;;7.50;;
14933;SDS011;7560;51.364;12.384;2023-05-07T00:15:58;10.27;;;7.18;;
14933;SDS011;7560;51.364;12.384;2023-05-07T00:21:00;11.50;;;7.30;;
14933;SDS011;7560;51.364;12.384;2023-05-07T00:26:03;11.40;;;7.78;;
14933;SDS011;7560;51.364;12.384;2023-05-07T00:31:06;9.85;;;7.03;;
14933;SDS011;7560;51.364;12.384;2023-05-07T00:36:08;12.52;;;7.88;;
14933;SDS011;7560;51.364;12.384;2023-05-07T00:41:10;12.05;;;8.15;;
14933;SDS011;7560;51.364;12.384;2023-05-07T00:46:20;11.60;;;7.95;;
14933;SDS011;7560;51.364;12.384;2023-05-07T00:51:23;12.38;;;8.35;;
14933;SDS011;7560;51.364;12.384;2023-05-07T00:56:30;12.52;;;8.73;;
14933;SDS011;7560;51.364;12.384;2023-05-07T01:01:33;12.55;;;8.50;;
14933;SDS011;7560;51.364;12.384;2023-05-07T01:06:35;12.23;;;8.73;;
14933;SDS011;7560;51.364;12.384;2023-05-07T01:11:39;12.73;;;8.90;;
14933;SDS011;7560;51.364;12.384;2023-05-07T01:16:41;14.25;;;9.23;;
14933;SDS011;7560;51.364;12.384;2023-05-07T01:21:46;12.43;;;9.23;;
14933;SDS011;7560;51.364;12.384;2023-05-07T01:26:49;16.05;;;9.90;;
14933;SDS011;7560;51.364;12.384;2023-05-07T01:31:52;14.68;;;9.93;;
14933;SDS011;7560;51.364;12.384;2023-05-07T01:36:59;14.77;;;9.93;;
14933;SDS011;7560;51.364;12.384;2023-05-07T01:42:03;13.70;;;9.98;;
14933;SDS011;7560;51.364;12.384;2023-05-07T01:47:05;18.38;;;11.20;;
14933;SDS011;7560;51.364;12.384;2023-05-07T01:52:09;16.38;;;11.40;;
14933;SDS011;7560;51.364;12.384;2023-05-07T01:57:12;15.10;;;10.68;;
14933;SDS011;7560;51.364;12.384;2023-05-07T02:02:14;17.20;;;12.05;;
14933;SDS011;7560;51.364;12.384;2023-05-07T02:07:17;18.15;;;12.55;;
14933;SDS011;7560;51.364;12.384;2023-05-07T02:12:19;18.70;;;12.40;;
14933;SDS011;7560;51.364;12.384;2023-05-07T02:17:21;16.23;;;11.50;;
14933;SDS011;7560;51.364;12.384;2023-05-07T02:22:23;18.58;;;12.40;;
14933;SDS011;7560;51.364;12.384;2023-05-07T02:27:25;16.75;;;11.90;;
14933;SDS011;7560;51.364;12.384;2023-05-07T02:32:28;17.88;;;12.18;;
14933;SDS011;7560;51.364;12.384;2023-05-07T02:37:30;19.65;;;12.38;;
14933;SDS011;7560;51.364;12.384;2023-05-07T02:42:32;18.02;;;12.95;;
14933;SDS011;7560;51.364;12.384;2023-05-07T02:47:35;19.83;;;13.00;;
14933;SDS011;7560;51.364;12.384;2023-05-07T02:52:37;18.88;;;12.95;;
14933;SDS011;7560;51.364;12.384;2023-05-07T02:57:40;17.17;;;11.93;;
14933;SDS011;7560;51.364;12.384;2023-05-07T03:02:43;18.65;;;11.93;;
14933;SDS011;7560;51.364;12.384;2023-05-07T03:07:47;18.08;;;12.45;;
14933;SDS011;7560;51.364;12.384;2023-05-07T03:12:54;18.17;;;11.73;;
14933;SDS011;7560;51.364;12.384;2023-05-07T03:17:56;17.60;;;11.68;;
14933;SDS011;7560;51.364;12.384;2023-05-07T03:22:58;17.35;;;11.65;;
14933;SDS011;7560;51.364;12.384;2023-05-07T03:28:01;18.48;;;12.18;;
14933;SDS011;7560;51.364;12.384;2023-05-07T03:33:04;17.73;;;12.15;;
14933;SDS011;7560;51.364;12.384;2023-05-07T03:38:06;18.58;;;12.35;;
14933;SDS011;7560;51.364;12.384;2023-05-07T03:43:08;17.85;;;12.02;;
14933;SDS011;7560;51.364;12.384;2023-05-07T03:48:10;17.30;;;12.27;;
14933;SDS011;7560;51.364;12.384;2023-05-07T03:53:12;19.20;;;12.27;;
14933;SDS011;7560;51.364;12.384;2023-05-07T03:58:15;17.40;;;11.68;;
14933;SDS011;7560;51.364;12.384;2023-05-07T04:03:17;18.55;;;12.25;;
14933;SDS011;7560;51.364;12.384;2023-05-07T04:08:23;19.10;;;12.32;;
14933;SDS011;7560;51.364;12.384;2023-05-07T04:13:25;18.98;;;12.13;;
14933;SDS011;7560;51.364;12.384;2023-05-07T04:18:30;20.08;;;12.75;;
14933;SDS011;7560;51.364;12.384;2023-05-07T04:23:32;18.88;;;12.23;;
14933;SDS011;7560;51.364;12.384;2023-05-07T04:28:34;19.92;;;12.57;;
14933;SDS011;7560;51.364;12.384;2023-05-07T04:33:36;18.08;;;12.02;;
14933;SDS011;7560;51.364;12.384;2023-05-07T04:38:39;18.42;;;12.20;;
14933;SDS011;7560;51.364;12.384;2023-05-07T04:43:41;17.20;;;11.50;;
14933;SDS011;7560;51.364;12.384;2023-05-07T04:48:43;16.23;;;11.15;;
14933;SDS011;7560;51.364;12.384;2023-05-07T04:53:48;16.77;;;10.88;;
14933;SDS011;7560;51.364;12.384;2023-05-07T04:58:50;17.92;;;11.00;;
14933;SDS011;7560;51.364;12.384;2023-05-07T05:03:53;16.25;;;11.00;;
14933;SDS011;7560;51.364;12.384;2023-05-07T05:08:55;15.40;;;10.85;;
14933;SDS011;7560;51.364;12.384;2023-05-07T05:13:59;20.05;;;11.40;;
14933;SDS011;7560;51.364;12.384;2023-05-07T05:19:04;14.07;;;9.90;;
14933;SDS011;7560;51.364;12.384;2023-05-07T05:24:07;18.30;;;10.48;;
14933;SDS011;7560;51.364;12.384;2023-05-07T05:29:09;13.48;;;9.48;;
14933;SDS011;7560;51.364;12.384;2023-05-07T05:34:12;16.42;;;9.32;;
14933;SDS011;7560;51.364;12.384;2023-05-07T05:39:13;13.85;;;9.82;;
14933;SDS011;7560;51.364;12.384;2023-05-07T05:44:16;14.13;;;9.25;;
14933;SDS011;7560;51.364;12.384;2023-05-07T05:49:20;13.38;;;8.55;;
14933;SDS011;7560;51.364;12.384;2023-05-07T05:54:22;12.85;;;8.82;;
14933;SDS011;7560;51.364;12.384;2023-05-07T05:59:24;12.15;;;8.30;;
14933;SDS011;7560;51.364;12.384;2023-05-07T06:04:27;12.80;;;8.18;;
14933;SDS011;7560;51.364;12.384;2023-05-07T06:09:31;12.48;;;8.80;;
14933;SDS011;7560;51.364;12.384;2023-05-07T06:14:34;13.77;;;9.35;;
14933;SDS011;7560;51.364;12.384;2023-05-07T06:19:36;14.38;;;9.75;;
14933;SDS011;7560;51.364;12.384;2023-05-07T06:24:39;13.60;;;9.55;;
14933;SDS011;7560;51.364;12.384;2023-05-07T06:29:42;13.55;;;9.73;;
14933;SDS011;7560;51.364;12.384;2023-05-07T06:34:44;13.18;;;9.65;;
14933;SDS011;7560;51.364;12.384;2023-05-07T06:39:47;12.75;;;9.45;;
14933;SDS011;7560;51.364;12.384;2023-05-07T06:44:48;12.93;;;9.23;;
14933;SDS011;7560;51.364;12.384;2023-05-07T06:49:53;11.80;;;8.82;;
14933;SDS011;7560;51.364;12.384;2023-05-07T06:54:55;14.10;;;10.00;;
14933;SDS011;7560;51.364;12.384;2023-05-07T06:59:58;13.88;;;9.85;;
14933;SDS011;7560;51.364;12.384;2023-05-07T07:05:00;14.23;;;9.30;;
14933;SDS011;7560;51.364;12.384;2023-05-07T07:10:04;12.35;;;8.35;;
14933;SDS011;7560;51.364;12.384;2023-05-07T07:15:06;12.02;;;8.88;;
14933;SDS011;7560;51.364;12.384;2023-05-07T07:20:10;9.85;;;7.60;;
14933;SDS011;7560;51.364;12.384;2023-05-07T07:25:12;10.45;;;8.10;;
14933;SDS011;7560;51.364;12.384;2023-05-07T07:30:17;9.75;;;7.90;;
14933;SDS011;7560;51.364;12.384;2023-05-07T07:35:21;12.57;;;7.38;;
14933;SDS011;7560;51.364;12.384;2023-05-07T07:40:25;8.60;;;7.28;;
14933;SDS011;7560;51.364;12.384;2023-05-07T07:45:30;8.95;;;7.00;;
14933;SDS011;7560;51.364;12.384;2023-05-07T07:50:32;8.70;;;6.70;;
14933;SDS011;7560;51.364;12.384;2023-05-07T07:55:45;7.80;;;6.50;;
14933;SDS011;7560;51.364;12.384;2023-05-07T08:00:47;7.88;;;6.43;;
14933;SDS011;7560;51.364;12.384;2023-05-07T08:05:49;6.80;;;6.10;;
14933;SDS011;7560;51.364;12.384;2023-05-07T08:10:52;6.43;;;5.70;;
14933;SDS011;7560;51.364;12.384;2023-05-07T08:15:56;6.30;;;5.60;;
14933;SDS011;7560;51.364;12.384;2023-05-07T08:20:58;5.55;;;5.00;;
14933;SDS011;7560;51.364;12.384;2023-05-07T08:26:01;6.80;;;5.13;;
14933;SDS011;7560;51.364;12.384;2023-05-07T08:31:04;5.55;;;4.90;;
14933;SDS011;7560;51.364;12.384;2023-05-07T08:36:10;5.88;;;4.50;;
14933;SDS011;7560;51.364;12.384;2023-05-07T08:41:13;5.85;;;5.20;;
14933;SDS011;7560;51.364;12.384;2023-05-07T08:46:18;5.97;;;5.10;;
14933;SDS011;7560;51.364;12.384;2023-05-07T08:51:21;6.57;;;5.35;;
14933;SDS011;7560;51.364;12.384;2023-05-07T08:56:23;7.43;;;5.72;;
14933;SDS011;7560;51.364;12.384;2023-05-07T09:01:26;6.57;;;5.38;;
14933;SDS011;7560;51.364;12.384;2023-05-07T09:06:29;6.63;;;5.78;;
14933;SDS011;7560;51.364;12.384;2023-05-07T09:11:31;9.93;;;6.22;;
14933;SDS011;7560;51.364;12.384;2023-05-07T09:16:33;6.55;;;5.88;;
14933;SDS011;7560;51.364;12.384;2023-05-07T09:21:35;7.50;;;5.75;;
14933;SDS011;7560;51.364;12.384;2023-05-07T09:26:39;6.72;;;5.85;;
14933;SDS011;7560;51.364;12.384;2023-05-07T09:31:42;7.53;;;6.20;;
14933;SDS011;7560;51.364;12.384;2023-05-07T09:36:44;8.23;;;6.72;;
14933;SDS011;7560;51.364;12.384;2023-05-07T09:41:47;8.38;;;6.75;;
14933;SDS011;7560;51.364;12.384;2023-05-07T09:46:53;7.13;;;6.43;;
14933;SDS011;7560;51.364;12.384;2023-05-07T09:52:00;7.35;;;6.53;;
14933;SDS011;7560;51.364;12.384;2023-05-07T09:57:03;7.80;;;6.85;;
14933;SDS011;7560;51.364;12.384;2023-05-07T10:02:06;7.85;;;6.28;;
14933;SDS011;7560;51.364;12.384;2023-05-07T10:07:11;5.90;;;5.30;;
14933;SDS011;7560;51.364;12.384;2023-05-07T10:12:17;5.85;;;5.22;;
14933;SDS011;7560;51.364;12.384;2023-05-07T10:17:20;6.35;;;5.47;;
14933;SDS011;7560;51.364;12.384;2023-05-07T10:22:25;5.78;;;5.10;;
14933;SDS011;7560;51.364;12.384;2023-05-07T10:27:28;6.35;;;5.30;;
14933;SDS011;7560;51.364;12.384;2023-05-07T10:32:48;6.78;;;5.32;;
14933;SDS011;7560;51.364;12.384;2023-05-07T10:37:55;7.43;;;4.75;;
14933;SDS011;7560;51.364;12.384;2023-05-07T10:43:00;5.75;;;5.13;;
14933;SDS011;7560;51.364;12.384;2023-05-07T10:48:14;7.93;;;5.78;;
14933;SDS011;7560;51.364;12.384;2023-05-07T10:53:31;6.78;;;5.85;;
14933;SDS011;7560;51.364;12.384;2023-05-07T10:58:36;8.80;;;6.65;;
14933;SDS011;7560;51.364;12.384;2023-05-07T11:04:12;10.63;;;8.00;;
14933;SDS011;7560;51.364;12.384;2023-05-07T11:09:15;9.40;;;7.97;;
14933;SDS011;7560;51.364;12.384;2023-05-07T11:19:48;9.38;;;6.50;;
14933;SDS011;7560;51.364;12.384;2023-05-07T11:24:52;7.32;;;5.85;;
14933;SDS011;7560;51.364;12.384;2023-05-07T11:29:54;5.80;;;5.13;;
14933;SDS011;7560;51.364;12.384;2023-05-07T11:34:58;7.80;;;5.53;;
14933;SDS011;7560;51.364;12.384;2023-05-07T11:40:04;5.82;;;5.13;;
14933;SDS011;7560;51.364;12.384;2023-05-07T11:45:08;8.30;;;5.78;;
14933;SDS011;7560;51.364;12.384;2023-05-07T11:50:15;6.22;;;5.38;;
14933;SDS011;7560;51.364;12.384;2023-05-07T11:55:18;5.93;;;5.32;;
14933;SDS011;7560;51.364;12.384;2023-05-07T12:00:23;6.75;;;5.75;;
14933;SDS011;7560;51.364;12.384;2023-05-07T12:05:26;7.70;;;5.50;;
14933;SDS011;7560;51.364;12.384;2023-05-07T12:10:29;6.88;;;5.45;;
14933;SDS011;7560;51.364;12.384;2023-05-07T12:15:34;7.15;;;5.60;;
14933;SDS011;7560;51.364;12.384;2023-05-07T12:20:36;6.43;;;5.20;;
14933;SDS011;7560;51.364;12.384;2023-05-07T12:25:39;6.15;;;5.50;;
14933;SDS011;7560;51.364;12.384;2023-05-07T12:30:49;7.55;;;5.40;;
14933;SDS011;7560;51.364;12.384;2023-05-07T12:35:53;8.07;;;6.35;;
14933;SDS011;7560;51.364;12.384;2023-05-07T12:40:59;7.95;;;6.05;;
14933;SDS011;7560;51.364;12.384;2023-05-07T12:46:04;5.68;;;5.03;;
14933;SDS011;7560;51.364;12.384;2023-05-07T12:51:07;5.65;;;4.80;;
14933;SDS011;7560;51.364;12.384;2023-05-07T12:56:11;5.03;;;3.95;;
14933;SDS011;7560;51.364;12.384;2023-05-07T13:01:13;4.78;;;4.38;;
14933;SDS011;7560;51.364;12.384;2023-05-07T13:06:24;5.03;;;4.53;;
14933;SDS011;7560;51.364;12.384;2023-05-07T13:11:26;5.57;;;4.65;;
14933;SDS011;7560;51.364;12.384;2023-05-07T13:16:29;6.03;;;4.80;;
14933;SDS011;7560;51.364;12.384;2023-05-07T13:21:31;5.55;;;4.40;;
14933;SDS011;7560;51.364;12.384;2023-05-07T13:26:36;5.25;;;4.25;;
14933;SDS011;7560;51.364;12.384;2023-05-07T13:31:38;4.75;;;4.25;;
14933;SDS011;7560;51.364;12.384;2023-05-07T13:36:44;4.72;;;4.13;;
14933;SDS011;7560;51.364;12.384;2023-05-07T13:41:45;4.80;;;4.28;;
14933;SDS011;7560;51.364;12.384;2023-05-07T13:46:48;4.40;;;3.92;;
14933;SDS011;7560;51.364;12.384;2023-05-07T13:51:50;5.18;;;4.18;;
14933;SDS011;7560;51.364;12.384;2023-05-07T13:56:52;4.28;;;3.88;;
14933;SDS011;7560;51.364;12.384;2023-05-07T14:01:53;3.72;;;3.35;;
14933;SDS011;7560;51.364;12.384;2023-05-07T14:06:58;3.85;;;3.50;;
14933;SDS011;7560;51.364;12.384;2023-05-07T14:12:00;3.58;;;3.20;;
14933;SDS011;7560;51.364;12.384;2023-05-07T14:17:02;3.63;;;3.13;;
14933;SDS011;7560;51.364;12.384;2023-05-07T14:22:04;3.45;;;3.15;;
14933;SDS011;7560;51.364;12.384;2023-05-07T14:27:06;5.35;;;3.20;;
14933;SDS011;7560;51.364;12.384;2023-05-07T14:32:08;3.53;;;3.10;;
14933;SDS011;7560;51.364;12.384;2023-05-07T14:37:10;5.00;;;3.33;;
14933;SDS011;7560;51.364;12.384;2023-05-07T14:42:13;2.83;;;2.58;;
14933;SDS011;7560;51.364;12.384;2023-05-07T14:47:21;3.05;;;2.65;;
14933;SDS011;7560;51.364;12.384;2023-05-07T14:52:29;3.25;;;2.88;;
14933;SDS011;7560;51.364;12.384;2023-05-07T14:57:31;3.05;;;2.80;;
14933;SDS011;7560;51.364;12.384;2023-05-07T15:02:43;4.82;;;2.40;;
14933;SDS011;7560;51.364;12.384;2023-05-07T15:07:45;3.03;;;2.72;;
14933;SDS011;7560;51.364;12.384;2023-05-07T15:13:05;2.70;;;2.50;;
14933;SDS011;7560;51.364;12.384;2023-05-07T15:18:06;3.20;;;2.90;;
14933;SDS011;7560;51.364;12.384;2023-05-07T15:23:09;3.65;;;3.33;;
14933;SDS011;7560;51.364;12.384;2023-05-07T15:28:16;3.60;;;3.30;;
14933;SDS011;7560;51.364;12.384;2023-05-07T15:33:18;3.33;;;3.03;;
14933;SDS011;7560;51.364;12.384;2023-05-07T15:38:22;3.50;;;3.20;;
14933;SDS011;7560;51.364;12.384;2023-05-07T15:43:27;3.67;;;3.17;;
14933;SDS011;7560;51.364;12.384;2023-05-07T15:48:30;4.53;;;3.45;;
14933;SDS011;7560;51.364;12.384;2023-05-07T15:53:33;3.90;;;3.50;;
14933;SDS011;7560;51.364;12.384;2023-05-07T15:58:36;5.07;;;3.90;;
14933;SDS011;7560;51.364;12.384;2023-05-07T16:03:38;4.35;;;3.88;;
14933;SDS011;7560;51.364;12.384;2023-05-07T16:08:42;4.72;;;4.22;;
14933;SDS011;7560;51.364;12.384;2023-05-07T16:13:49;4.80;;;4.13;;
14933;SDS011;7560;51.364;12.384;2023-05-07T16:18:54;4.82;;;4.32;;
14933;SDS011;7560;51.364;12.384;2023-05-07T16:23:58;5.13;;;4.00;;
14933;SDS011;7560;51.364;12.384;2023-05-07T16:28:59;7.78;;;3.80;;
14933;SDS011;7560;51.364;12.384;2023-05-07T16:34:03;4.88;;;4.05;;
14933;SDS011;7560;51.364;12.384;2023-05-07T16:39:05;5.95;;;4.18;;
14933;SDS011;7560;51.364;12.384;2023-05-07T16:44:09;5.20;;;4.75;;
14933;SDS011;7560;51.364;12.384;2023-05-07T16:49:12;5.85;;;4.90;;
14933;SDS011;7560;51.364;12.384;2023-05-07T16:54:13;6.13;;;4.80;;
14933;SDS011;7560;51.364;12.384;2023-05-07T16:59:16;7.95;;;4.05;;
14933;SDS011;7560;51.364;12.384;2023-05-07T17:04:18;7.88;;;4.55;;
14933;SDS011;7560;51.364;12.384;2023-05-07T17:09:21;5.95;;;4.20;;
14933;SDS011;7560;51.364;12.384;2023-05-07T17:14:22;4.50;;;4.10;;
14933;SDS011;7560;51.364;12.384;2023-05-07T17:19:25;4.70;;;4.30;;
14933;SDS011;7560;51.364;12.384;2023-05-07T17:24:27;4.60;;;4.13;;
14933;SDS011;7560;51.364;12.384;2023-05-07T17:29:29;5.65;;;4.03;;
14933;SDS011;7560;51.364;12.384;2023-05-07T17:34:31;5.20;;;4.38;;
14933;SDS011;7560;51.364;12.384;2023-05-07T17:39:33;5.07;;;4.65;;
14933;SDS011;7560;51.364;12.384;2023-05-07T17:44:35;6.05;;;4.75;;
14933;SDS011;7560;51.364;12.384;2023-05-07T17:49:39;5.60;;;5.00;;
14933;SDS011;7560;51.364;12.384;2023-05-07T17:54:42;5.93;;;5.18;;
14933;SDS011;7560;51.364;12.384;2023-05-07T17:59:44;6.60;;;5.22;;
14933;SDS011;7560;51.364;12.384;2023-05-07T18:04:45;6.65;;;5.03;;
14933;SDS011;7560;51.364;12.384;2023-05-07T18:09:50;5.70;;;5.10;;
14933;SDS011;7560;51.364;12.384;2023-05-07T18:14:52;6.00;;;5.28;;
14933;SDS011;7560;51.364;12.384;2023-05-07T18:19:56;6.78;;;5.30;;
14933;SDS011;7560;51.364;12.384;2023-05-07T18:24:59;6.75;;;5.13;;
14933;SDS011;7560;51.364;12.384;2023-05-07T18:30:03;6.95;;;5.18;;
14933;SDS011;7560;51.364;12.384;2023-05-07T18:35:07;6.20;;;5.13;;
14933;SDS011;7560;51.364;12.384;2023-05-07T18:40:10;7.35;;;5.22;;
14933;SDS011;7560;51.364;12.384;2023-05-07T18:45:12;6.80;;;5.80;;
14933;SDS011;7560;51.364;12.384;2023-05-07T18:50:14;6.63;;;5.75;;
14933;SDS011;7560;51.364;12.384;2023-05-07T18:55:19;10.15;;;5.55;;
14933;SDS011;7560;51.364;12.384;2023-05-07T19:00:22;6.18;;;5.57;;
14933;SDS011;7560;51.364;12.384;2023-05-07T19:05:24;6.70;;;5.95;;
14933;SDS011;7560;51.364;12.384;2023-05-07T19:10:25;7.65;;;5.65;;
14933;SDS011;7560;51.364;12.384;2023-05-07T19:15:27;6.10;;;5.30;;
14933;SDS011;7560;51.364;12.384;2023-05-07T19:20:31;6.60;;;5.65;;
14933;SDS011;7560;51.364;12.384;2023-05-07T19:25:33;7.43;;;6.15;;
14933;SDS011;7560;51.364;12.384;2023-05-07T19:30:37;6.75;;;6.03;;
14933;SDS011;7560;51.364;12.384;2023-05-07T19:35:41;8.35;;;5.97;;
14933;SDS011;7560;51.364;12.384;2023-05-07T19:40:45;6.72;;;5.60;;
14933;SDS011;7560;51.364;12.384;2023-05-07T19:45:51;7.20;;;5.90;;
14933;SDS011;7560;51.364;12.384;2023-05-07T19:50:55;6.85;;;5.90;;
14933;SDS011;7560;51.364;12.384;2023-05-07T19:56:06;9.20;;;5.50;;
14933;SDS011;7560;51.364;12.384;2023-05-07T20:01:11;7.28;;;5.90;;
14933;SDS011;7560;51.364;12.384;2023-05-07T20:06:12;7.13;;;5.57;;
14933;SDS011;7560;51.364;12.384;2023-05-07T20:11:18;6.78;;;5.18;;
14933;SDS011;7560;51.364;12.384;2023-05-07T20:16:20;6.18;;;5.30;;
14933;SDS011;7560;51.364;12.384;2023-05-07T20:21:23;7.85;;;5.63;;
14933;SDS011;7560;51.364;12.384;2023-05-07T20:26:24;7.07;;;5.85;;
14933;SDS011;7560;51.364;12.384;2023-05-07T20:31:27;7.25;;;5.40;;
14933;SDS011;7560;51.364;12.384;2023-05-07T20:36:29;5.78;;;5.03;;
14933;SDS011;7560;51.364;12.384;2023-05-07T20:41:32;7.22;;;5.95;;
14933;SDS011;7560;51.364;12.384;2023-05-07T20:46:36;8.88;;;6.03;;
14933;SDS011;7560;51.364;12.384;2023-05-07T20:51:41;6.90;;;5.75;;
14933;SDS011;7560;51.364;12.384;2023-05-07T20:56:44;11.43;;;6.25;;
14933;SDS011;7560;51.364;12.384;2023-05-07T21:01:47;8.52;;;5.88;;
14933;SDS011;7560;51.364;12.384;2023-05-07T21:06:49;7.97;;;6.40;;
14933;SDS011;7560;51.364;12.384;2023-05-07T21:11:51;7.65;;;6.25;;
14933;SDS011;7560;51.364;12.384;2023-05-07T21:16:55;7.93;;;5.82;;
14933;SDS011;7560;51.364;12.384;2023-05-07T21:21:57;8.30;;;5.95;;
14933;SDS011;7560;51.364;12.384;2023-05-07T21:27:01;8.90;;;6.13;;
14933;SDS011;7560;51.364;12.384;2023-05-07T21:32:03;7.50;;;6.43;;
14933;SDS011;7560;51.364;12.384;2023-05-07T21:37:07;9.15;;;6.38;;
14933;SDS011;7560;51.364;12.384;2023-05-07T21:42:09;8.77;;;6.78;;
14933;SDS011;7560;51.364;12.384;2023-05-07T21:47:13;7.72;;;6.45;;
14933;SDS011;7560;51.364;12.384;2023-05-07T21:52:15;8.85;;;7.00;;
14933;SDS011;7560;51.364;12.384;2023-05-07T21:57:21;7.60;;;6.50;;
14933;SDS011;7560;51.364;12.384;2023-05-07T22:02:24;8.38;;;6.88;;
14933;SDS011;7560;51.364;12.384;2023-05-07T22:07:26;8.02;;;6.97;;
14933;SDS011;7560;51.364;12.384;2023-05-07T22:12:28;9.40;;;7.32;;
14933;SDS011;7560;51.364;12.384;2023-05-07T22:17:30;8.50;;;6.85;;
14933;SDS011;7560;51.364;12.384;2023-05-07T22:22:43;9.73;;;7.45;;
14933;SDS011;7560;51.364;12.384;2023-05-07T22:27:52;10.50;;;7.03;;
14933;SDS011;7560;51.364;12.384;2023-05-07T22:32:54;10.65;;;6.88;;
14933;SDS011;7560;51.364;12.384;2023-05-07T22:37:56;11.15;;;6.75;;
14933;SDS011;7560;51.364;12.384;2023-05-07T22:42:58;9.82;;;6.78;;
14933;SDS011;7560;51.364;12.384;2023-05-07T22:48:02;8.63;;;6.85;;
14933;SDS011;7560;51.364;12.384;2023-05-07T22:53:05;9.68;;;7.22;;
14933;SDS011;7560;51.364;12.384;2023-05-07T22:58:10;7.35;;;6.22;;
14933;SDS011;7560;51.364;12.384;2023-05-07T23:03:11;7.78;;;6.53;;
14933;SDS011;7560;51.364;12.384;2023-05-07T23:08:13;7.65;;;6.30;;
14933;SDS011;7560;51.364;12.384;2023-05-07T23:13:16;8.27;;;6.80;;
14933;SDS011;7560;51.364;12.384;2023-05-07T23:18:18;7.25;;;6.28;;
14933;SDS011;7560;51.364;12.384;2023-05-07T23:23:19;8.25;;;6.47;;
14933;SDS011;7560;51.364;12.384;2023-05-07T23:28:21;7.78;;;5.90;;
14933;SDS011;7560;51.364;12.384;2023-05-07T23:33:24;8.35;;;6.30;;
14933;SDS011;7560;51.364;12.384;2023-05-07T23:38:27;9.93;;;6.22;;
14933;SDS011;7560;51.364;12.384;2023-05-07T23:43:28;8.43;;;6.30;;
14933;SDS011;7560;51.364;12.384;2023-05-07T23:48:30;7.57;;;5.43;;
14933;SDS011;7560;51.364;12.384;2023-05-07T23:53:32;6.97;;;5.82;;
14933;SDS011;7560;51.364;12.384;2023-05-07T23:58:34;8.00;;;6.25;;
